sensor_id;sensor_type;location;lat;lon;timestamp;temperature;humidity
19586;DHT22;9939;49.246;9.106;2022-08-06T00:02:21;20.60;99.90
19586;DHT22;9939;49.246;9.106;2022-08-06T00:04:55;20.60;99.90
19586;DHT22;9939;49.246;9.106;2022-08-06T00:07:24;20.60;99.90
19586;DHT22;9939;49.246;9.106;2022-08-06T00:09:54;20.70;99.90
19586;DHT22;9939;49.246;9.106;2022-08-06T00:12:28;20.80;99.90
19586;DHT22;9939;49.246;9.106;2022-08-06T00:14:56;20.60;99.90
19586;DHT22;9939;49.246;9.106;2022-08-06T00:17:24;20.70;99.90
19586;DHT22;9939;49.246;9.106;2022-08-06T00:19:57;20.60;99.90
19586;DHT22;9939;49.246;9.106;2022-08-06T00:22:26;20.60;99.90
19586;DHT22;9939;49.246;9.106;2022-08-06T00:24:55;20.60;99.90
19586;DHT22;9939;49.246;9.106;2022-08-06T00:27:24;20.60;99.90
19586;DHT22;9939;49.246;9.106;2022-08-06T00:30:05;20.60;99.90
19586;DHT22;9939;49.246;9.106;2022-08-06T00:32:44;20.50;99.90
19586;DHT22;9939;49.246;9.106;2022-08-06T00:35:19;20.40;99.90
19586;DHT22;9939;49.246;9.106;2022-08-06T00:37:47;20.30;99.90
19586;DHT22;9939;49.246;9.106;2022-08-06T00:40:25;20.40;99.90
19586;DHT22;9939;49.246;9.106;2022-08-06T00:42:56;20.40;99.90
19586;DHT22;9939;49.246;9.106;2022-08-06T00:45:23;20.30;99.90
19586;DHT22;9939;49.246;9.106;2022-08-06T00:47:52;20.30;99.90
19586;DHT22;9939;49.246;9.106;2022-08-06T00:50:31;20.30;99.90
19586;DHT22;9939;49.246;9.106;2022-08-06T00:52:59;20.10;99.90
19586;DHT22;9939;49.246;9.106;2022-08-06T00:55:29;20.10;99.90
19586;DHT22;9939;49.246;9.106;2022-08-06T00:58:05;20.00;99.90
19586;DHT22;9939;49.246;9.106;2022-08-06T01:00:33;20.00;99.90
19586;DHT22;9939;49.246;9.106;2022-08-06T01:03:04;20.00;99.90
19586;DHT22;9939;49.246;9.106;2022-08-06T01:05:31;20.00;99.90
19586;DHT22;9939;49.246;9.106;2022-08-06T01:08:18;20.00;99.90
19586;DHT22;9939;49.246;9.106;2022-08-06T01:10:46;19.80;99.90
19586;DHT22;9939;49.246;9.106;2022-08-06T01:13:17;19.80;99.90
19586;DHT22;9939;49.246;9.106;2022-08-06T01:16:12;19.90;99.90
19586;DHT22;9939;49.246;9.106;2022-08-06T01:28:25;19.80;99.90
19586;DHT22;9939;49.246;9.106;2022-08-06T01:31:19;19.80;99.90
19586;DHT22;9939;49.246;9.106;2022-08-06T01:33:56;19.90;99.90
19586;DHT22;9939;49.246;9.106;2022-08-06T01:36:38;19.70;99.90
19586;DHT22;9939;49.246;9.106;2022-08-06T01:39:16;19.90;99.90
19586;DHT22;9939;49.246;9.106;2022-08-06T01:42:04;19.80;99.90
19586;DHT22;9939;49.246;9.106;2022-08-06T01:44:35;19.80;99.90
19586;DHT22;9939;49.246;9.106;2022-08-06T01:47:10;19.80;99.90
19586;DHT22;9939;49.246;9.106;2022-08-06T01:49:47;19.80;99.90
19586;DHT22;9939;49.246;9.106;2022-08-06T01:52:39;19.80;99.90
19586;DHT22;9939;49.246;9.106;2022-08-06T01:55:27;19.70;99.90
19586;DHT22;9939;49.246;9.106;2022-08-06T01:58:21;19.80;99.90
19586;DHT22;9939;49.246;9.106;2022-08-06T02:00:57;19.80;99.90
19586;DHT22;9939;49.246;9.106;2022-08-06T02:03:44;19.90;99.90
19586;DHT22;9939;49.246;9.106;2022-08-06T02:06:32;19.70;99.90
19586;DHT22;9939;49.246;9.106;2022-08-06T02:09:07;19.70;99.90
19586;DHT22;9939;49.246;9.106;2022-08-06T02:11:58;19.70;99.90
19586;DHT22;9939;49.246;9.106;2022-08-06T02:14:37;19.60;99.90
19586;DHT22;9939;49.246;9.106;2022-08-06T02:17:11;19.60;99.90
19586;DHT22;9939;49.246;9.106;2022-08-06T02:19:49;19.70;99.90
19586;DHT22;9939;49.246;9.106;2022-08-06T02:22:38;19.60;99.90
19586;DHT22;9939;49.246;9.106;2022-08-06T02:25:11;19.60;99.90
19586;DHT22;9939;49.246;9.106;2022-08-06T02:27:55;19.60;99.90
19586;DHT22;9939;49.246;9.106;2022-08-06T02:30:38;19.50;99.90
19586;DHT22;9939;49.246;9.106;2022-08-06T02:33:10;19.40;99.90
19586;DHT22;9939;49.246;9.106;2022-08-06T02:36:19;19.50;99.90
19586;DHT22;9939;49.246;9.106;2022-08-06T02:39:02;19.50;99.90
19586;DHT22;9939;49.246;9.106;2022-08-06T02:41:41;19.40;99.90
19586;DHT22;9939;49.246;9.106;2022-08-06T02:47:17;19.30;99.90
19586;DHT22;9939;49.246;9.106;2022-08-06T02:50:03;19.30;99.90
19586;DHT22;9939;49.246;9.106;2022-08-06T02:52:40;19.20;99.90
19586;DHT22;9939;49.246;9.106;2022-08-06T02:55:26;19.30;99.90
19586;DHT22;9939;49.246;9.106;2022-08-06T02:58:15;19.10;99.90
19586;DHT22;9939;49.246;9.106;2022-08-06T03:00:45;19.00;99.90
19586;DHT22;9939;49.246;9.106;2022-08-06T03:03:20;19.00;99.90
19586;DHT22;9939;49.246;9.106;2022-08-06T03:06:04;18.90;99.90
19586;DHT22;9939;49.246;9.106;2022-08-06T03:08:34;18.80;99.90
19586;DHT22;9939;49.246;9.106;2022-08-06T03:11:04;18.70;99.90
19586;DHT22;9939;49.246;9.106;2022-08-06T03:13:33;18.70;99.90
19586;DHT22;9939;49.246;9.106;2022-08-06T03:16:02;18.70;99.90
19586;DHT22;9939;49.246;9.106;2022-08-06T03:18:30;18.50;99.90
19586;DHT22;9939;49.246;9.106;2022-08-06T03:20:57;18.50;99.90
19586;DHT22;9939;49.246;9.106;2022-08-06T03:23:26;18.40;99.90
19586;DHT22;9939;49.246;9.106;2022-08-06T03:25:56;18.30;99.90
19586;DHT22;9939;49.246;9.106;2022-08-06T03:28:33;18.20;99.90
19586;DHT22;9939;49.246;9.106;2022-08-06T03:31:02;18.20;99.90
19586;DHT22;9939;49.246;9.106;2022-08-06T03:33:30;18.10;99.90
19586;DHT22;9939;49.246;9.106;2022-08-06T03:36:19;18.00;99.90
19586;DHT22;9939;49.246;9.106;2022-08-06T03:38:54;18.10;99.90
19586;DHT22;9939;49.246;9.106;2022-08-06T03:41:24;17.90;99.90
19586;DHT22;9939;49.246;9.106;2022-08-06T03:44:01;17.80;99.90
19586;DHT22;9939;49.246;9.106;2022-08-06T03:46:35;17.70;99.90
19586;DHT22;9939;49.246;9.106;2022-08-06T03:49:06;17.70;99.90
19586;DHT22;9939;49.246;9.106;2022-08-06T03:51:35;17.70;99.90
19586;DHT22;9939;49.246;9.106;2022-08-06T03:54:25;17.60;99.90
19586;DHT22;9939;49.246;9.106;2022-08-06T03:56:57;17.50;99.90
19586;DHT22;9939;49.246;9.106;2022-08-06T03:59:27;17.40;99.90
19586;DHT22;9939;49.246;9.106;2022-08-06T04:02:10;17.40;99.90
19586;DHT22;9939;49.246;9.106;2022-08-06T04:04:57;17.30;99.90
19586;DHT22;9939;49.246;9.106;2022-08-06T04:07:28;17.30;99.90
19586;DHT22;9939;49.246;9.106;2022-08-06T04:10:17;17.20;99.90
19586;DHT22;9939;49.246;9.106;2022-08-06T04:13:02;17.10;99.90
19586;DHT22;9939;49.246;9.106;2022-08-06T04:15:51;17.30;99.90
19586;DHT22;9939;49.246;9.106;2022-08-06T04:18:28;17.20;99.90
19586;DHT22;9939;49.246;9.106;2022-08-06T04:21:03;17.40;99.90
19586;DHT22;9939;49.246;9.106;2022-08-06T04:23:51;17.20;99.90
19586;DHT22;9939;49.246;9.106;2022-08-06T04:26:22;17.10;99.90
19586;DHT22;9939;49.246;9.106;2022-08-06T04:28:53;17.10;99.90
19586;DHT22;9939;49.246;9.106;2022-08-06T04:31:26;17.20;99.90
19586;DHT22;9939;49.246;9.106;2022-08-06T04:34:19;17.30;99.90
19586;DHT22;9939;49.246;9.106;2022-08-06T04:36:53;17.20;99.90
19586;DHT22;9939;49.246;9.106;2022-08-06T04:39:21;17.20;99.90
19586;DHT22;9939;49.246;9.106;2022-08-06T04:42:03;17.20;99.90
19586;DHT22;9939;49.246;9.106;2022-08-06T04:44:32;17.30;99.90
19586;DHT22;9939;49.246;9.106;2022-08-06T04:47:00;17.20;99.90
19586;DHT22;9939;49.246;9.106;2022-08-06T04:49:28;17.30;99.90
19586;DHT22;9939;49.246;9.106;2022-08-06T04:52:25;17.40;99.90
19586;DHT22;9939;49.246;9.106;2022-08-06T04:55:13;17.40;99.90
19586;DHT22;9939;49.246;9.106;2022-08-06T04:58:03;17.40;99.90
19586;DHT22;9939;49.246;9.106;2022-08-06T05:00:45;17.50;99.90
19586;DHT22;9939;49.246;9.106;2022-08-06T05:03:30;17.50;99.90
19586;DHT22;9939;49.246;9.106;2022-08-06T05:09:00;17.50;99.90
19586;DHT22;9939;49.246;9.106;2022-08-06T05:11:49;17.60;99.90
19586;DHT22;9939;49.246;9.106;2022-08-06T05:14:32;17.60;99.90
19586;DHT22;9939;49.246;9.106;2022-08-06T05:17:03;17.70;99.90
19586;DHT22;9939;49.246;9.106;2022-08-06T05:19:38;17.70;99.90
19586;DHT22;9939;49.246;9.106;2022-08-06T05:22:09;17.70;99.90
19586;DHT22;9939;49.246;9.106;2022-08-06T05:24:45;17.80;99.90
19586;DHT22;9939;49.246;9.106;2022-08-06T05:27:29;17.90;99.90
19586;DHT22;9939;49.246;9.106;2022-08-06T05:30:17;18.10;99.90
19586;DHT22;9939;49.246;9.106;2022-08-06T05:32:48;18.10;99.90
19586;DHT22;9939;49.246;9.106;2022-08-06T05:35:22;18.20;99.90
19586;DHT22;9939;49.246;9.106;2022-08-06T05:38:07;18.30;99.90
19586;DHT22;9939;49.246;9.106;2022-08-06T05:40:37;18.40;99.90
19586;DHT22;9939;49.246;9.106;2022-08-06T05:43:23;18.40;99.90
19586;DHT22;9939;49.246;9.106;2022-08-06T05:45:54;18.60;99.90
19586;DHT22;9939;49.246;9.106;2022-08-06T05:48:23;18.70;99.90
19586;DHT22;9939;49.246;9.106;2022-08-06T05:50:59;18.80;99.90
19586;DHT22;9939;49.246;9.106;2022-08-06T05:53:41;18.90;99.90
19586;DHT22;9939;49.246;9.106;2022-08-06T05:56:39;18.80;99.90
19586;DHT22;9939;49.246;9.106;2022-08-06T05:59:18;18.60;99.90
19586;DHT22;9939;49.246;9.106;2022-08-06T06:02:06;18.80;99.90
19586;DHT22;9939;49.246;9.106;2022-08-06T06:04:35;18.90;99.90
19586;DHT22;9939;49.246;9.106;2022-08-06T06:07:04;18.90;99.90
19586;DHT22;9939;49.246;9.106;2022-08-06T06:09:36;19.00;99.90
19586;DHT22;9939;49.246;9.106;2022-08-06T06:12:24;19.10;99.90
19586;DHT22;9939;49.246;9.106;2022-08-06T06:15:00;19.20;99.90
19586;DHT22;9939;49.246;9.106;2022-08-06T06:26:44;19.50;99.90
19586;DHT22;9939;49.246;9.106;2022-08-06T06:29:34;19.50;99.90
19586;DHT22;9939;49.246;9.106;2022-08-06T06:32:42;19.60;99.90
19586;DHT22;9939;49.246;9.106;2022-08-06T06:40:51;19.90;99.90
19586;DHT22;9939;49.246;9.106;2022-08-06T06:43:37;20.10;99.90
19586;DHT22;9939;49.246;9.106;2022-08-06T06:49:13;20.40;99.90
19586;DHT22;9939;49.246;9.106;2022-08-06T06:52:10;20.50;99.90
19586;DHT22;9939;49.246;9.106;2022-08-06T06:54:44;20.70;99.90
19586;DHT22;9939;49.246;9.106;2022-08-06T06:57:36;20.90;99.90
19586;DHT22;9939;49.246;9.106;2022-08-06T07:00:09;21.00;99.90
19586;DHT22;9939;49.246;9.106;2022-08-06T07:02:57;21.00;99.90
19586;DHT22;9939;49.246;9.106;2022-08-06T07:05:27;20.60;99.90
19586;DHT22;9939;49.246;9.106;2022-08-06T07:08:18;20.50;99.90
19586;DHT22;9939;49.246;9.106;2022-08-06T07:11:04;20.80;99.90
19586;DHT22;9939;49.246;9.106;2022-08-06T07:13:34;21.30;99.90
19586;DHT22;9939;49.246;9.106;2022-08-06T07:16:22;21.30;99.90
19586;DHT22;9939;49.246;9.106;2022-08-06T07:19:06;20.70;99.90
19586;DHT22;9939;49.246;9.106;2022-08-06T07:21:38;21.00;99.90
19586;DHT22;9939;49.246;9.106;2022-08-06T07:24:14;21.10;99.90
19586;DHT22;9939;49.246;9.106;2022-08-06T07:27:01;21.20;99.90
19586;DHT22;9939;49.246;9.106;2022-08-06T07:29:30;21.50;99.90
19586;DHT22;9939;49.246;9.106;2022-08-06T07:32:19;21.80;99.90
19586;DHT22;9939;49.246;9.106;2022-08-06T07:34:59;22.00;99.90
19586;DHT22;9939;49.246;9.106;2022-08-06T07:37:32;22.00;99.90
19586;DHT22;9939;49.246;9.106;2022-08-06T07:40:07;21.60;99.90
19586;DHT22;9939;49.246;9.106;2022-08-06T07:42:37;21.70;99.90
19586;DHT22;9939;49.246;9.106;2022-08-06T07:45:07;22.00;99.90
19586;DHT22;9939;49.246;9.106;2022-08-06T07:47:43;22.40;99.90
19586;DHT22;9939;49.246;9.106;2022-08-06T07:50:23;22.40;99.90
19586;DHT22;9939;49.246;9.106;2022-08-06T07:52:53;22.50;99.90
19586;DHT22;9939;49.246;9.106;2022-08-06T07:55:23;22.40;99.90
19586;DHT22;9939;49.246;9.106;2022-08-06T07:58:04;22.10;99.90
19586;DHT22;9939;49.246;9.106;2022-08-06T08:00:32;21.90;99.90
19586;DHT22;9939;49.246;9.106;2022-08-06T08:03:05;22.20;99.90
19586;DHT22;9939;49.246;9.106;2022-08-06T08:06:11;22.60;99.90
19586;DHT22;9939;49.246;9.106;2022-08-06T08:09:14;23.00;99.90
19586;DHT22;9939;49.246;9.106;2022-08-06T08:11:55;22.80;99.90
19586;DHT22;9939;49.246;9.106;2022-08-06T08:14:44;22.90;99.10
19586;DHT22;9939;49.246;9.106;2022-08-06T08:17:15;23.10;98.80
19586;DHT22;9939;49.246;9.106;2022-08-06T08:20:07;23.20;97.80
19586;DHT22;9939;49.246;9.106;2022-08-06T08:22:44;23.10;98.70
19586;DHT22;9939;49.246;9.106;2022-08-06T08:25:16;23.20;98.10
19586;DHT22;9939;49.246;9.106;2022-08-06T08:28:08;23.10;97.90
19586;DHT22;9939;49.246;9.106;2022-08-06T08:30:43;23.30;98.20
19586;DHT22;9939;49.246;9.106;2022-08-06T08:33:16;23.40;97.40
19586;DHT22;9939;49.246;9.106;2022-08-06T08:35:45;23.60;97.40
19586;DHT22;9939;49.246;9.106;2022-08-06T08:38:31;23.80;97.20
19586;DHT22;9939;49.246;9.106;2022-08-06T08:41:11;23.80;97.50
19586;DHT22;9939;49.246;9.106;2022-08-06T08:43:43;24.00;97.00
19586;DHT22;9939;49.246;9.106;2022-08-06T08:46:27;23.80;96.50
19586;DHT22;9939;49.246;9.106;2022-08-06T08:48:58;24.30;95.80
19586;DHT22;9939;49.246;9.106;2022-08-06T08:51:27;25.10;95.40
19586;DHT22;9939;49.246;9.106;2022-08-06T08:53:55;25.60;95.00
19586;DHT22;9939;49.246;9.106;2022-08-06T08:56:25;26.20;94.90
19586;DHT22;9939;49.246;9.106;2022-08-06T08:59:12;26.60;93.70
19586;DHT22;9939;49.246;9.106;2022-08-06T09:02:02;26.60;93.50
19586;DHT22;9939;49.246;9.106;2022-08-06T09:04:32;26.30;92.90
19586;DHT22;9939;49.246;9.106;2022-08-06T09:07:00;26.30;93.10
19586;DHT22;9939;49.246;9.106;2022-08-06T09:09:28;26.60;92.10
19586;DHT22;9939;49.246;9.106;2022-08-06T09:11:59;27.30;91.60
19586;DHT22;9939;49.246;9.106;2022-08-06T09:14:35;27.20;91.30
19586;DHT22;9939;49.246;9.106;2022-08-06T09:17:04;26.40;92.60
19586;DHT22;9939;49.246;9.106;2022-08-06T09:19:38;26.70;92.20
19586;DHT22;9939;49.246;9.106;2022-08-06T09:22:08;27.50;91.90
19586;DHT22;9939;49.246;9.106;2022-08-06T09:24:35;28.00;91.10
19586;DHT22;9939;49.246;9.106;2022-08-06T09:27:11;27.40;90.70
19586;DHT22;9939;49.246;9.106;2022-08-06T09:30:01;27.80;90.50
19586;DHT22;9939;49.246;9.106;2022-08-06T09:32:48;29.40;89.60
19586;DHT22;9939;49.246;9.106;2022-08-06T09:35:27;27.60;90.40
19586;DHT22;9939;49.246;9.106;2022-08-06T09:38:12;28.40;90.00
19586;DHT22;9939;49.246;9.106;2022-08-06T09:43:33;30.20;85.00
19586;DHT22;9939;49.246;9.106;2022-08-06T09:46:43;30.70;83.90
19586;DHT22;9939;49.246;9.106;2022-08-06T09:49:17;30.10;84.60
19586;DHT22;9939;49.246;9.106;2022-08-06T09:54:40;30.70;83.20
19586;DHT22;9939;49.246;9.106;2022-08-06T09:57:08;31.60;81.10
19586;DHT22;9939;49.246;9.106;2022-08-06T09:59:46;31.80;79.60
19586;DHT22;9939;49.246;9.106;2022-08-06T10:02:18;32.30;78.80
19586;DHT22;9939;49.246;9.106;2022-08-06T10:05:10;33.20;77.30
19586;DHT22;9939;49.246;9.106;2022-08-06T10:08:01;33.60;75.40
19586;DHT22;9939;49.246;9.106;2022-08-06T10:10:48;32.80;76.50
19586;DHT22;9939;49.246;9.106;2022-08-06T10:13:25;31.80;76.60
19586;DHT22;9939;49.246;9.106;2022-08-06T10:18:49;31.20;77.50
19586;DHT22;9939;49.246;9.106;2022-08-06T10:21:33;31.60;76.90
19586;DHT22;9939;49.246;9.106;2022-08-06T10:24:14;31.00;79.30
19586;DHT22;9939;49.246;9.106;2022-08-06T10:27:02;30.60;78.70
19586;DHT22;9939;49.246;9.106;2022-08-06T10:29:35;28.60;82.30
19586;DHT22;9939;49.246;9.106;2022-08-06T10:32:09;29.80;81.70
19586;DHT22;9939;49.246;9.106;2022-08-06T10:34:38;31.50;78.00
19586;DHT22;9939;49.246;9.106;2022-08-06T10:37:07;32.00;77.60
19586;DHT22;9939;49.246;9.106;2022-08-06T10:39:58;32.20;76.00
19586;DHT22;9939;49.246;9.106;2022-08-06T10:42:36;32.00;75.30
19586;DHT22;9939;49.246;9.106;2022-08-06T10:45:08;32.00;73.30
19586;DHT22;9939;49.246;9.106;2022-08-06T10:47:45;31.30;75.00
19586;DHT22;9939;49.246;9.106;2022-08-06T10:50:33;31.20;77.10
19586;DHT22;9939;49.246;9.106;2022-08-06T10:53:14;31.10;75.20
19586;DHT22;9939;49.246;9.106;2022-08-06T10:56:05;31.90;74.50
19586;DHT22;9939;49.246;9.106;2022-08-06T10:58:36;32.80;73.20
19586;DHT22;9939;49.246;9.106;2022-08-06T11:04:32;31.40;74.50
19586;DHT22;9939;49.246;9.106;2022-08-06T11:07:32;30.80;75.70
19586;DHT22;9939;49.246;9.106;2022-08-06T11:15:36;33.20;71.30
19586;DHT22;9939;49.246;9.106;2022-08-06T11:18:09;33.90;70.10
19586;DHT22;9939;49.246;9.106;2022-08-06T11:20:43;32.70;70.00
19586;DHT22;9939;49.246;9.106;2022-08-06T11:26:01;33.20;70.90
19586;DHT22;9939;49.246;9.106;2022-08-06T11:31:03;32.00;69.90
19586;DHT22;9939;49.246;9.106;2022-08-06T11:36:08;33.40;69.60
19586;DHT22;9939;49.246;9.106;2022-08-06T11:41:26;34.80;65.70
19586;DHT22;9939;49.246;9.106;2022-08-06T11:44:15;34.60;65.70
19586;DHT22;9939;49.246;9.106;2022-08-06T11:47:23;33.30;67.50
19586;DHT22;9939;49.246;9.106;2022-08-06T11:50:03;33.70;67.10
19586;DHT22;9939;49.246;9.106;2022-08-06T11:52:53;31.70;69.30
19586;DHT22;9939;49.246;9.106;2022-08-06T11:55:21;31.70;70.50
19586;DHT22;9939;49.246;9.106;2022-08-06T12:00:56;33.30;68.00
19586;DHT22;9939;49.246;9.106;2022-08-06T12:03:39;32.50;68.00
19586;DHT22;9939;49.246;9.106;2022-08-06T12:06:20;33.10;67.40
19586;DHT22;9939;49.246;9.106;2022-08-06T12:09:08;33.60;67.70
19586;DHT22;9939;49.246;9.106;2022-08-06T12:11:40;33.80;67.30
19586;DHT22;9939;49.246;9.106;2022-08-06T12:14:36;34.80;65.90
19586;DHT22;9939;49.246;9.106;2022-08-06T12:17:13;36.30;62.90
19586;DHT22;9939;49.246;9.106;2022-08-06T12:19:59;37.50;60.80
19586;DHT22;9939;49.246;9.106;2022-08-06T12:22:31;37.60;60.80
19586;DHT22;9939;49.246;9.106;2022-08-06T12:24:59;35.90;61.60
19586;DHT22;9939;49.246;9.106;2022-08-06T12:27:39;36.00;60.40
19586;DHT22;9939;49.246;9.106;2022-08-06T12:30:17;35.10;61.70
19586;DHT22;9939;49.246;9.106;2022-08-06T12:33:05;35.30;63.10
19586;DHT22;9939;49.246;9.106;2022-08-06T12:38:19;36.20;60.70
19586;DHT22;9939;49.246;9.106;2022-08-06T12:41:00;37.20;59.90
19586;DHT22;9939;49.246;9.106;2022-08-06T12:43:40;38.60;57.20
19586;DHT22;9939;49.246;9.106;2022-08-06T12:46:13;37.70;57.60
19586;DHT22;9939;49.246;9.106;2022-08-06T12:48:50;37.60;58.50
19586;DHT22;9939;49.246;9.106;2022-08-06T12:51:18;36.60;60.00
19586;DHT22;9939;49.246;9.106;2022-08-06T12:53:53;37.10;59.40
19586;DHT22;9939;49.246;9.106;2022-08-06T12:56:22;37.80;57.90
19586;DHT22;9939;49.246;9.106;2022-08-06T12:58:58;39.80;57.00
19586;DHT22;9939;49.246;9.106;2022-08-06T13:01:27;38.40;56.40
19586;DHT22;9939;49.246;9.106;2022-08-06T13:04:15;35.60;60.10
19586;DHT22;9939;49.246;9.106;2022-08-06T13:06:43;35.60;59.00
19586;DHT22;9939;49.246;9.106;2022-08-06T13:09:15;37.50;57.10
19586;DHT22;9939;49.246;9.106;2022-08-06T13:11:43;37.80;56.90
19586;DHT22;9939;49.246;9.106;2022-08-06T13:14:17;37.00;57.40
19586;DHT22;9939;49.246;9.106;2022-08-06T13:16:47;35.80;58.80
19586;DHT22;9939;49.246;9.106;2022-08-06T13:19:23;34.80;59.50
19586;DHT22;9939;49.246;9.106;2022-08-06T13:22:04;36.30;57.80
19586;DHT22;9939;49.246;9.106;2022-08-06T13:24:35;37.00;57.60
19586;DHT22;9939;49.246;9.106;2022-08-06T13:27:32;38.00;56.40
19586;DHT22;9939;49.246;9.106;2022-08-06T13:30:02;38.60;55.30
19586;DHT22;9939;49.246;9.106;2022-08-06T13:32:50;38.40;55.90
19586;DHT22;9939;49.246;9.106;2022-08-06T13:35:26;38.10;56.80
19586;DHT22;9939;49.246;9.106;2022-08-06T13:37:56;36.30;58.20
19586;DHT22;9939;49.246;9.106;2022-08-06T13:40:46;37.20;56.80
19586;DHT22;9939;49.246;9.106;2022-08-06T13:46:17;37.60;54.30
19586;DHT22;9939;49.246;9.106;2022-08-06T13:48:54;38.00;54.70
19586;DHT22;9939;49.246;9.106;2022-08-06T13:51:24;39.50;53.70
19586;DHT22;9939;49.246;9.106;2022-08-06T13:53:55;37.60;55.40
19586;DHT22;9939;49.246;9.106;2022-08-06T13:56:26;36.60;56.20
19586;DHT22;9939;49.246;9.106;2022-08-06T13:58:58;38.10;55.60
19586;DHT22;9939;49.246;9.106;2022-08-06T14:01:26;39.80;54.20
19586;DHT22;9939;49.246;9.106;2022-08-06T14:04:17;39.00;54.00
19586;DHT22;9939;49.246;9.106;2022-08-06T14:06:50;39.70;53.60
19586;DHT22;9939;49.246;9.106;2022-08-06T14:09:21;40.40;51.50
19586;DHT22;9939;49.246;9.106;2022-08-06T14:11:54;37.80;53.50
19586;DHT22;9939;49.246;9.106;2022-08-06T14:14:23;34.40;57.10
19586;DHT22;9939;49.246;9.106;2022-08-06T14:16:55;36.40;56.50
19586;DHT22;9939;49.246;9.106;2022-08-06T14:19:23;38.20;53.70
19586;DHT22;9939;49.246;9.106;2022-08-06T14:22:10;39.80;52.40
19586;DHT22;9939;49.246;9.106;2022-08-06T14:24:37;39.30;52.50
19586;DHT22;9939;49.246;9.106;2022-08-06T14:27:07;38.30;53.60
19586;DHT22;9939;49.246;9.106;2022-08-06T14:29:44;37.60;53.60
19586;DHT22;9939;49.246;9.106;2022-08-06T14:32:31;36.60;53.90
19586;DHT22;9939;49.246;9.106;2022-08-06T14:34:58;38.00;53.80
19586;DHT22;9939;49.246;9.106;2022-08-06T14:37:32;39.10;52.20
19586;DHT22;9939;49.246;9.106;2022-08-06T14:40:18;39.10;51.30
19586;DHT22;9939;49.246;9.106;2022-08-06T14:43:25;38.50;52.20
19586;DHT22;9939;49.246;9.106;2022-08-06T14:46:27;38.90;52.00
19586;DHT22;9939;49.246;9.106;2022-08-06T14:48:56;40.20;50.60
19586;DHT22;9939;49.246;9.106;2022-08-06T14:51:26;39.60;50.70
19586;DHT22;9939;49.246;9.106;2022-08-06T14:54:15;37.90;51.70
19586;DHT22;9939;49.246;9.106;2022-08-06T14:56:43;39.10;51.40
19586;DHT22;9939;49.246;9.106;2022-08-06T14:59:18;38.70;51.30
19586;DHT22;9939;49.246;9.106;2022-08-06T15:01:45;39.30;51.00
19586;DHT22;9939;49.246;9.106;2022-08-06T15:04:15;39.70;50.10
19586;DHT22;9939;49.246;9.106;2022-08-06T15:06:51;39.40;51.00
19586;DHT22;9939;49.246;9.106;2022-08-06T15:09:26;39.90;50.70
19586;DHT22;9939;49.246;9.106;2022-08-06T15:12:14;40.70;49.20
19586;DHT22;9939;49.246;9.106;2022-08-06T15:15:01;39.10;49.70
19586;DHT22;9939;49.246;9.106;2022-08-06T15:17:31;38.20;50.20
19586;DHT22;9939;49.246;9.106;2022-08-06T15:20:19;38.60;50.40
19586;DHT22;9939;49.246;9.106;2022-08-06T15:22:52;39.40;49.00
19586;DHT22;9939;49.246;9.106;2022-08-06T15:25:21;38.90;50.20
19586;DHT22;9939;49.246;9.106;2022-08-06T15:28:09;39.30;49.80
19586;DHT22;9939;49.246;9.106;2022-08-06T15:30:36;38.70;49.40
19586;DHT22;9939;49.246;9.106;2022-08-06T15:33:05;37.20;51.10
19586;DHT22;9939;49.246;9.106;2022-08-06T15:35:38;38.30;50.40
19586;DHT22;9939;49.246;9.106;2022-08-06T15:38:25;39.20;50.50
19586;DHT22;9939;49.246;9.106;2022-08-06T15:40:53;39.60;48.90
19586;DHT22;9939;49.246;9.106;2022-08-06T15:43:21;39.50;49.70
19586;DHT22;9939;49.246;9.106;2022-08-06T15:45:52;38.00;50.20
19586;DHT22;9939;49.246;9.106;2022-08-06T15:48:28;38.30;50.30
19586;DHT22;9939;49.246;9.106;2022-08-06T15:50:57;37.30;51.10
19586;DHT22;9939;49.246;9.106;2022-08-06T15:53:44;36.60;51.30
19586;DHT22;9939;49.246;9.106;2022-08-06T15:56:23;34.00;54.40
19586;DHT22;9939;49.246;9.106;2022-08-06T15:59:11;35.90;52.60
19586;DHT22;9939;49.246;9.106;2022-08-06T16:01:41;37.50;51.40
19586;DHT22;9939;49.246;9.106;2022-08-06T16:04:29;39.50;49.90
19586;DHT22;9939;49.246;9.106;2022-08-06T16:07:04;40.30;49.30
19586;DHT22;9939;49.246;9.106;2022-08-06T16:09:32;40.00;49.80
19586;DHT22;9939;49.246;9.106;2022-08-06T16:12:19;41.50;47.40
19586;DHT22;9939;49.246;9.106;2022-08-06T16:14:48;40.00;49.50
19586;DHT22;9939;49.246;9.106;2022-08-06T16:17:24;37.50;49.80
19586;DHT22;9939;49.246;9.106;2022-08-06T16:20:13;37.30;50.70
19586;DHT22;9939;49.246;9.106;2022-08-06T16:22:48;37.20;50.70
19586;DHT22;9939;49.246;9.106;2022-08-06T16:25:16;37.80;49.70
19586;DHT22;9939;49.246;9.106;2022-08-06T16:27:46;38.20;49.50
19586;DHT22;9939;49.246;9.106;2022-08-06T16:30:15;39.30;48.20
19586;DHT22;9939;49.246;9.106;2022-08-06T16:32:42;40.10;48.40
19586;DHT22;9939;49.246;9.106;2022-08-06T16:35:10;39.90;47.80
19586;DHT22;9939;49.246;9.106;2022-08-06T16:37:41;38.30;48.70
19586;DHT22;9939;49.246;9.106;2022-08-06T16:40:08;36.20;50.20
19586;DHT22;9939;49.246;9.106;2022-08-06T16:42:36;36.10;50.40
19586;DHT22;9939;49.246;9.106;2022-08-06T16:45:04;36.60;50.80
19586;DHT22;9939;49.246;9.106;2022-08-06T16:47:41;37.80;49.20
19586;DHT22;9939;49.246;9.106;2022-08-06T16:50:29;37.70;49.20
19586;DHT22;9939;49.246;9.106;2022-08-06T16:53:06;37.40;49.00
19586;DHT22;9939;49.246;9.106;2022-08-06T16:55:53;38.90;48.80
19586;DHT22;9939;49.246;9.106;2022-08-06T16:58:21;37.30;49.40
19586;DHT22;9939;49.246;9.106;2022-08-06T17:01:08;35.40;50.40
19586;DHT22;9939;49.246;9.106;2022-08-06T17:03:56;35.00;51.10
19586;DHT22;9939;49.246;9.106;2022-08-06T17:06:27;34.40;52.20
19586;DHT22;9939;49.246;9.106;2022-08-06T17:08:57;35.90;51.90
19586;DHT22;9939;49.246;9.106;2022-08-06T17:11:25;36.30;51.70
19586;DHT22;9939;49.246;9.106;2022-08-06T17:14:12;35.80;51.10
19586;DHT22;9939;49.246;9.106;2022-08-06T17:17:00;37.10;50.00
19586;DHT22;9939;49.246;9.106;2022-08-06T17:19:33;35.90;50.00
19586;DHT22;9939;49.246;9.106;2022-08-06T17:22:03;35.20;50.90
19586;DHT22;9939;49.246;9.106;2022-08-06T17:24:33;34.40;51.70
19586;DHT22;9939;49.246;9.106;2022-08-06T17:27:20;32.70;53.00
19586;DHT22;9939;49.246;9.106;2022-08-06T17:30:11;30.90;54.80
19586;DHT22;9939;49.246;9.106;2022-08-06T17:32:42;29.20;56.50
19586;DHT22;9939;49.246;9.106;2022-08-06T17:35:30;28.00;57.80
19586;DHT22;9939;49.246;9.106;2022-08-06T17:38:17;27.00;59.40
19586;DHT22;9939;49.246;9.106;2022-08-06T17:40:44;26.70;60.20
19586;DHT22;9939;49.246;9.106;2022-08-06T17:43:15;26.40;59.90
19586;DHT22;9939;49.246;9.106;2022-08-06T17:46:02;26.30;60.50
19586;DHT22;9939;49.246;9.106;2022-08-06T17:48:49;26.00;60.50
19586;DHT22;9939;49.246;9.106;2022-08-06T17:51:19;25.80;61.20
19586;DHT22;9939;49.246;9.106;2022-08-06T17:53:49;25.60;62.00
19586;DHT22;9939;49.246;9.106;2022-08-06T17:56:24;25.50;62.30
19586;DHT22;9939;49.246;9.106;2022-08-06T17:58:58;25.40;62.00
19586;DHT22;9939;49.246;9.106;2022-08-06T18:01:42;25.40;64.10